createdAt,value
2023-03-20T00:01:24.186Z,8.90
2023-03-20T00:03:52.088Z,8.90
2023-03-20T00:06:21.540Z,8.80
2023-03-20T00:08:50.532Z,8.80
2023-03-20T00:11:34.969Z,8.80
2023-03-20T00:14:07.388Z,8.80
2023-03-20T00:16:42.788Z,8.80
2023-03-20T00:19:17.625Z,8.90
2023-03-20T00:21:47.528Z,8.80
2023-03-20T00:24:15.592Z,8.80
2023-03-20T00:26:44.040Z,8.80
2023-03-20T00:29:23.403Z,8.70
2023-03-20T00:31:50.371Z,8.70
2023-03-20T00:34:19.527Z,8.70
2023-03-20T00:36:47.147Z,8.70
2023-03-20T00:39:14.000Z,8.70
2023-03-20T00:41:56.128Z,8.70
2023-03-20T00:44:50.931Z,8.70
2023-03-20T00:47:20.720Z,8.70
2023-03-20T00:49:50.778Z,8.70
2023-03-20T00:52:21.895Z,8.60
2023-03-20T00:54:48.740Z,8.60
2023-03-20T00:57:46.122Z,8.60
2023-03-20T01:00:40.822Z,8.60
2023-03-20T01:03:19.511Z,8.60
2023-03-20T01:05:46.928Z,8.60
2023-03-20T01:08:22.580Z,8.60
2023-03-20T01:10:58.276Z,8.60
2023-03-20T01:13:26.394Z,8.60
2023-03-20T01:15:54.608Z,8.60
2023-03-20T01:18:23.619Z,8.60
2023-03-20T01:20:53.000Z,8.60
2023-03-20T01:23:22.881Z,8.60
2023-03-20T01:25:50.777Z,8.60
2023-03-20T01:28:23.809Z,8.50
2023-03-20T01:30:51.118Z,8.50
2023-03-20T01:33:23.962Z,8.60
2023-03-20T01:35:51.559Z,8.60
2023-03-20T01:38:24.220Z,8.60
2023-03-20T01:41:18.088Z,8.60
2023-03-20T01:43:46.254Z,8.60
2023-03-20T01:46:21.449Z,8.60
2023-03-20T01:48:51.178Z,8.60
2023-03-20T01:51:20.008Z,8.60
2023-03-20T01:53:50.654Z,8.60
2023-03-20T01:56:19.907Z,8.60
2023-03-20T01:58:54.623Z,8.60
2023-03-20T02:01:21.653Z,8.60
2023-03-20T02:03:50.630Z,8.60
2023-03-20T02:06:18.406Z,8.50
2023-03-20T02:08:49.200Z,8.50
2023-03-20T02:11:18.266Z,8.60
2023-03-20T02:13:45.987Z,8.60
2023-03-20T02:16:17.523Z,8.60
2023-03-20T02:18:47.483Z,8.60
2023-03-20T02:21:27.178Z,8.60
2023-03-20T02:24:18.603Z,8.60
2023-03-20T02:27:16.960Z,8.60
2023-03-20T02:30:06.274Z,8.60
2023-03-20T02:33:19.378Z,8.60
2023-03-20T02:36:07.413Z,8.60
2023-03-20T02:38:42.930Z,8.50
2023-03-20T02:41:28.688Z,8.50
2023-03-20T02:43:55.632Z,8.50
2023-03-20T02:46:47.754Z,8.50
2023-03-20T02:49:29.876Z,8.50
2023-03-20T02:52:15.540Z,8.50
2023-03-20T02:54:48.932Z,8.50
2023-03-20T02:58:03.229Z,8.40
2023-03-20T03:00:37.731Z,8.50
2023-03-20T03:03:18.852Z,8.50
2023-03-20T03:06:16.361Z,8.50
2023-03-20T03:08:50.083Z,8.50
2023-03-20T03:11:17.586Z,8.50
2023-03-20T03:13:56.278Z,8.50
2023-03-20T03:16:27.861Z,8.40
2023-03-20T03:19:12.857Z,8.50
2023-03-20T03:21:40.848Z,8.50
2023-03-20T03:24:39.819Z,8.50
2023-03-20T03:27:20.901Z,8.40
2023-03-20T03:29:58.210Z,8.40
2023-03-20T03:32:27.937Z,8.50
2023-03-20T03:34:55.716Z,8.50
2023-03-20T03:37:40.067Z,8.50
2023-03-20T03:40:38.361Z,8.50
2023-03-20T03:43:15.318Z,8.50
2023-03-20T03:45:50.093Z,8.50
2023-03-20T03:48:25.274Z,8.50
2023-03-20T03:50:58.600Z,8.40
2023-03-20T03:53:31.843Z,8.40
2023-03-20T03:56:04.629Z,8.40
2023-03-20T03:58:42.996Z,8.40
2023-03-20T04:01:12.620Z,8.40
2023-03-20T04:03:49.496Z,8.40
2023-03-20T04:06:17.833Z,8.30
2023-03-20T04:08:44.718Z,8.30
2023-03-20T04:11:20.292Z,8.30
2023-03-20T04:13:49.212Z,8.30
2023-03-20T04:16:17.835Z,8.30
2023-03-20T04:18:45.352Z,8.30
2023-03-20T04:21:12.800Z,8.30
2023-03-20T04:23:39.772Z,8.20
2023-03-20T04:26:07.449Z,8.30
2023-03-20T04:28:34.456Z,8.30
2023-03-20T04:31:02.412Z,8.30
2023-03-20T04:33:29.397Z,8.30
2023-03-20T04:35:56.419Z,8.30
2023-03-20T04:38:24.144Z,8.30
2023-03-20T04:40:51.550Z,8.30
2023-03-20T04:43:18.649Z,8.30
2023-03-20T04:45:45.871Z,8.30
2023-03-20T04:48:12.814Z,8.30
2023-03-20T04:50:39.868Z,8.30
2023-03-20T04:53:06.844Z,8.30
2023-03-20T04:55:33.891Z,8.30
2023-03-20T04:58:01.031Z,8.30
2023-03-20T05:00:27.907Z,8.30
2023-03-20T05:02:54.735Z,8.20
2023-03-20T05:05:21.556Z,8.20
2023-03-20T05:07:48.431Z,8.20
2023-03-20T05:10:15.569Z,8.20
2023-03-20T05:12:42.386Z,8.20
2023-03-20T05:15:09.564Z,8.10
2023-03-20T05:17:36.444Z,8.10
2023-03-20T05:20:03.474Z,8.10
2023-03-20T05:22:30.345Z,8.10
2023-03-20T05:24:57.261Z,8.10
2023-03-20T05:27:24.106Z,8.10
2023-03-20T05:29:51.073Z,8.10
2023-03-20T05:32:17.911Z,8.00
2023-03-20T05:34:44.895Z,8.00
2023-03-20T05:37:11.748Z,8.00
2023-03-20T05:39:38.505Z,7.90
2023-03-20T05:42:05.405Z,7.90
2023-03-20T05:44:32.215Z,7.90
2023-03-20T05:46:58.990Z,7.90
2023-03-20T05:49:25.904Z,8.00
2023-03-20T05:51:52.665Z,7.90
2023-03-20T05:54:19.597Z,7.90
2023-03-20T05:56:46.828Z,7.90
2023-03-20T05:59:13.737Z,7.90
2023-03-20T06:01:40.557Z,7.80
2023-03-20T06:04:08.555Z,7.80
2023-03-20T06:06:37.890Z,7.80
2023-03-20T06:09:05.366Z,7.80
2023-03-20T06:11:33.085Z,7.80
2023-03-20T06:14:00.796Z,7.80
2023-03-20T06:16:27.735Z,7.80
2023-03-20T06:18:54.627Z,7.80
2023-03-20T06:21:21.414Z,7.90
2023-03-20T06:23:48.189Z,7.90
2023-03-20T06:26:15.015Z,8.00
2023-03-20T06:28:41.855Z,8.00
2023-03-20T06:31:10.011Z,7.90
2023-03-20T06:33:38.193Z,8.00
2023-03-20T06:36:05.480Z,8.10
2023-03-20T06:38:32.420Z,8.10
2023-03-20T06:40:59.258Z,8.20
2023-03-20T06:43:26.098Z,8.20
2023-03-20T06:45:53.187Z,8.30
2023-03-20T06:48:22.686Z,8.30
2023-03-20T06:50:50.274Z,8.30
2023-03-20T06:53:17.233Z,8.20
2023-03-20T06:55:48.485Z,8.30
2023-03-20T06:58:15.680Z,8.30
2023-03-20T07:00:42.787Z,8.40
2023-03-20T07:03:10.244Z,8.40
2023-03-20T07:05:38.696Z,8.50
2023-03-20T07:08:07.548Z,8.60
2023-03-20T07:10:35.019Z,8.60
2023-03-20T07:13:02.210Z,8.70
2023-03-20T07:15:30.148Z,8.80
2023-03-20T07:17:57.436Z,8.90
2023-03-20T07:20:24.484Z,8.90
2023-03-20T07:22:51.323Z,8.90
2023-03-20T07:25:21.999Z,9.00
2023-03-20T07:27:53.177Z,8.90
2023-03-20T07:30:19.972Z,9.00
2023-03-20T07:32:48.252Z,9.00
2023-03-20T07:35:15.322Z,9.00
2023-03-20T07:37:42.665Z,8.90
2023-03-20T07:40:11.320Z,9.00
2023-03-20T07:42:38.211Z,9.00
2023-03-20T07:45:05.636Z,9.00
2023-03-20T07:47:32.543Z,9.10
2023-03-20T07:49:59.453Z,9.20
2023-03-20T07:52:26.665Z,9.20
2023-03-20T07:54:53.726Z,9.30
2023-03-20T07:57:20.582Z,9.50
2023-03-20T07:59:47.440Z,10.10
2023-03-20T08:02:18.558Z,10.50
2023-03-20T08:04:46.401Z,11.20
2023-03-20T08:07:13.434Z,12.20
2023-03-20T08:09:40.544Z,13.90
2023-03-20T08:12:07.745Z,14.70
2023-03-20T08:14:34.964Z,14.90
2023-03-20T08:17:13.781Z,14.10
2023-03-20T08:19:42.010Z,13.70
2023-03-20T08:22:08.808Z,13.50
2023-03-20T08:24:35.635Z,13.40
2023-03-20T08:27:02.396Z,13.50
2023-03-20T08:29:29.540Z,13.60
2023-03-20T08:31:57.845Z,13.50
2023-03-20T08:34:24.794Z,13.20
2023-03-20T08:36:52.734Z,13.30
2023-03-20T08:39:19.639Z,12.90
2023-03-20T08:41:46.469Z,12.30
2023-03-20T08:44:13.972Z,12.00
2023-03-20T08:46:40.751Z,11.90
2023-03-20T08:49:07.674Z,11.50
2023-03-20T08:51:34.475Z,11.50
2023-03-20T08:54:01.384Z,11.40
2023-03-20T08:56:28.159Z,11.30
2023-03-20T08:58:56.215Z,11.30
2023-03-20T09:01:23.559Z,11.20
2023-03-20T09:03:50.572Z,11.30
2023-03-20T09:06:18.728Z,11.30
2023-03-20T09:08:45.863Z,11.50
2023-03-20T09:11:12.782Z,11.70
2023-03-20T09:13:39.601Z,11.70
2023-03-20T09:16:07.347Z,11.80
2023-03-20T09:18:34.207Z,12.10
2023-03-20T09:21:01.199Z,12.40
2023-03-20T09:23:27.969Z,13.10
2023-03-20T09:25:54.791Z,13.70
2023-03-20T09:28:21.807Z,14.00
2023-03-20T09:30:48.662Z,13.80
2023-03-20T09:33:15.714Z,13.70
2023-03-20T09:35:43.821Z,13.60
2023-03-20T09:38:12.372Z,13.20
2023-03-20T09:40:48.348Z,13.00
2023-03-20T09:43:18.131Z,12.70
2023-03-20T09:45:59.800Z,12.60
2023-03-20T09:48:35.741Z,12.70
2023-03-20T09:51:14.722Z,12.80
2023-03-20T09:53:46.440Z,12.80
2023-03-20T09:56:26.001Z,12.60
2023-03-20T09:59:01.234Z,12.60
2023-03-20T10:01:54.840Z,12.70
2023-03-20T10:04:26.302Z,12.90
2023-03-20T10:06:53.912Z,12.90
2023-03-20T10:09:31.746Z,12.90
2023-03-20T10:12:09.916Z,12.80
2023-03-20T10:15:02.591Z,12.90
2023-03-20T10:17:38.432Z,12.80
2023-03-20T10:20:34.605Z,12.70
2023-03-20T10:23:12.545Z,12.70
2023-03-20T10:26:05.238Z,12.90
2023-03-20T10:28:46.114Z,13.20
2023-03-20T10:31:33.203Z,13.10
2023-03-20T10:34:23.150Z,12.90
2023-03-20T10:36:52.700Z,12.80
2023-03-20T10:39:53.540Z,12.70
2023-03-20T10:42:28.217Z,12.70
2023-03-20T10:44:58.423Z,12.90
2023-03-20T10:47:30.443Z,12.80
2023-03-20T10:50:07.285Z,13.20
2023-03-20T10:52:38.125Z,13.50
2023-03-20T10:55:16.676Z,13.90
2023-03-20T10:57:51.312Z,15.70
2023-03-20T11:00:22.507Z,17.20
2023-03-20T11:02:49.341Z,18.50
2023-03-20T11:05:37.196Z,18.90
2023-03-20T11:08:12.580Z,19.00
2023-03-20T11:10:42.116Z,18.60
2023-03-20T11:13:36.551Z,18.40
2023-03-20T11:16:14.974Z,17.70
2023-03-20T11:18:42.448Z,17.30
2023-03-20T11:21:19.358Z,18.20
2023-03-20T11:23:46.642Z,18.30
2023-03-20T11:26:35.848Z,17.50
2023-03-20T11:29:05.170Z,17.00
2023-03-20T11:31:36.310Z,15.90
2023-03-20T11:34:24.492Z,15.40
2023-03-20T11:37:09.721Z,14.90
2023-03-20T11:39:38.187Z,14.60
2023-03-20T11:42:21.452Z,14.50
2023-03-20T11:45:01.367Z,14.40
2023-03-20T11:47:31.739Z,14.20
2023-03-20T11:50:01.429Z,14.30
2023-03-20T11:52:32.949Z,14.50
2023-03-20T11:55:03.454Z,14.40
2023-03-20T11:57:35.359Z,14.40
2023-03-20T12:00:11.588Z,14.40
2023-03-20T12:02:41.849Z,14.30
2023-03-20T12:05:30.108Z,14.00
2023-03-20T12:08:12.955Z,13.80
2023-03-20T12:10:44.623Z,13.80
2023-03-20T12:13:20.384Z,13.60
2023-03-20T12:15:53.735Z,13.60
2023-03-20T12:18:26.790Z,13.60
2023-03-20T12:21:21.462Z,13.50
2023-03-20T12:24:18.427Z,13.50
2023-03-20T12:27:22.826Z,13.60
2023-03-20T12:30:06.987Z,13.50
2023-03-20T12:32:51.866Z,13.50
2023-03-20T12:35:29.132Z,13.60
2023-03-20T12:37:56.181Z,13.50
2023-03-20T12:40:42.623Z,13.40
2023-03-20T12:43:41.837Z,13.40
2023-03-20T12:46:33.728Z,13.30
2023-03-20T12:49:08.624Z,13.20
2023-03-20T12:51:35.522Z,13.20
2023-03-20T12:54:28.097Z,13.10
2023-03-20T12:57:03.192Z,13.10
2023-03-20T12:59:47.558Z,13.00
2023-03-20T13:02:48.406Z,13.00
2023-03-20T13:05:32.033Z,13.00
2023-03-20T13:08:17.232Z,13.00
2023-03-20T13:11:00.322Z,13.10
2023-03-20T13:13:50.730Z,13.20
2023-03-20T13:16:33.256Z,13.20
2023-03-20T13:18:59.993Z,13.10
2023-03-20T13:21:50.316Z,13.10
2023-03-20T13:24:33.311Z,13.10
2023-03-20T13:27:18.080Z,13.30
2023-03-20T13:30:01.383Z,13.70
2023-03-20T13:32:52.679Z,14.00
2023-03-20T13:35:19.646Z,14.50
2023-03-20T13:37:54.348Z,14.50
2023-03-20T13:40:28.378Z,14.70
2023-03-20T13:43:10.437Z,15.20
2023-03-20T13:45:40.078Z,16.40
2023-03-20T13:48:32.528Z,18.40
2023-03-20T13:51:12.234Z,20.10
2023-03-20T13:54:01.724Z,20.90
2023-03-20T13:56:56.360Z,21.80
2023-03-20T14:00:01.114Z,22.40
2023-03-20T14:02:45.432Z,22.20
2023-03-20T14:05:20.499Z,22.90
2023-03-20T14:07:49.750Z,23.20
2023-03-20T14:10:22.824Z,23.60
2023-03-20T14:13:04.756Z,22.40
2023-03-20T14:15:37.924Z,21.20
2023-03-20T14:18:15.918Z,19.60
2023-03-20T14:20:44.730Z,18.10
2023-03-20T14:23:20.765Z,17.30
2023-03-20T14:25:48.705Z,16.70
2023-03-20T14:28:15.578Z,16.20
2023-03-20T14:30:42.534Z,16.00
2023-03-20T14:33:15.383Z,15.70
2023-03-20T14:36:11.206Z,15.40
2023-03-20T14:39:10.001Z,15.10
2023-03-20T14:42:01.148Z,15.10
2023-03-20T14:44:34.105Z,15.90
2023-03-20T14:47:10.374Z,16.00
2023-03-20T14:49:43.016Z,15.90
2023-03-20T14:52:36.210Z,15.70
2023-03-20T14:55:18.329Z,15.50
2023-03-20T14:57:55.977Z,15.40
2023-03-20T15:00:27.349Z,15.30
2023-03-20T15:03:13.735Z,15.30
2023-03-20T15:05:40.926Z,14.90
2023-03-20T15:08:21.587Z,14.50
2023-03-20T15:10:53.711Z,14.60
2023-03-20T15:13:21.488Z,15.60
2023-03-20T15:16:04.013Z,15.50
2023-03-20T15:18:35.924Z,15.20
2023-03-20T15:21:03.733Z,15.80
2023-03-20T15:23:30.608Z,15.70
2023-03-20T15:26:00.705Z,15.40
2023-03-20T15:28:27.825Z,15.40
2023-03-20T15:30:59.426Z,15.80
2023-03-20T15:33:33.801Z,15.80
2023-03-20T15:36:20.754Z,15.70
2023-03-20T15:38:48.092Z,15.70
2023-03-20T15:41:30.416Z,16.00
2023-03-20T15:44:17.451Z,15.90
2023-03-20T15:47:16.889Z,16.90
2023-03-20T15:49:48.553Z,17.30
2023-03-20T15:52:30.480Z,16.50
2023-03-20T15:54:59.945Z,16.00
2023-03-20T15:57:41.163Z,15.70
2023-03-20T16:00:24.453Z,16.20
2023-03-20T16:02:51.750Z,16.50
2023-03-20T16:05:20.404Z,16.20
2023-03-20T16:07:47.561Z,15.70
2023-03-20T16:10:20.613Z,15.50
2023-03-20T16:12:50.359Z,15.30
2023-03-20T16:15:19.113Z,15.10
2023-03-20T16:17:46.553Z,15.30
2023-03-20T16:20:15.519Z,15.30
2023-03-20T16:22:44.176Z,15.30
2023-03-20T16:25:17.670Z,15.40
2023-03-20T16:27:47.479Z,15.30
2023-03-20T16:30:24.765Z,14.70
2023-03-20T16:32:58.441Z,14.30
2023-03-20T16:35:31.840Z,14.00
2023-03-20T16:38:00.919Z,13.80
2023-03-20T16:40:36.035Z,13.80
2023-03-20T16:43:12.773Z,13.80
2023-03-20T16:45:44.345Z,13.90
2023-03-20T16:48:11.353Z,14.40
2023-03-20T16:50:43.953Z,15.10
2023-03-20T16:53:14.350Z,15.70
2023-03-20T16:55:47.073Z,16.30
2023-03-20T16:58:27.477Z,15.80
2023-03-20T17:01:05.790Z,15.30
2023-03-20T17:03:44.684Z,14.30
2023-03-20T17:06:21.484Z,13.60
2023-03-20T17:08:54.542Z,12.90
2023-03-20T17:11:36.477Z,12.40
2023-03-20T17:14:04.481Z,12.10
2023-03-20T17:16:33.341Z,11.80
2023-03-20T17:19:02.984Z,11.60
2023-03-20T17:21:30.233Z,11.40
2023-03-20T17:23:57.517Z,11.30
2023-03-20T17:26:24.799Z,11.10
2023-03-20T17:28:51.947Z,11.00
2023-03-20T17:31:19.270Z,10.90
2023-03-20T17:33:46.603Z,10.80
2023-03-20T17:36:29.086Z,10.60
2023-03-20T17:38:56.765Z,10.50
2023-03-20T17:41:24.836Z,10.40
2023-03-20T17:43:52.232Z,10.40
2023-03-20T17:46:21.539Z,10.20
2023-03-20T17:48:57.804Z,10.20
2023-03-20T17:51:25.223Z,10.10
2023-03-20T17:53:57.740Z,10.00
2023-03-20T17:56:32.729Z,9.90
2023-03-20T17:59:00.770Z,9.80
2023-03-20T18:01:32.568Z,9.80
2023-03-20T18:03:59.621Z,9.70
2023-03-20T18:06:31.962Z,9.70
2023-03-20T18:09:00.554Z,9.60
2023-03-20T18:11:28.309Z,9.60
2023-03-20T18:13:55.320Z,9.50
2023-03-20T18:16:24.931Z,9.40
2023-03-20T18:18:52.646Z,9.40
2023-03-20T18:21:20.046Z,9.30
2023-03-20T18:23:47.195Z,9.30
2023-03-20T18:26:24.885Z,9.20
2023-03-20T18:28:53.566Z,9.20
2023-03-20T18:31:21.498Z,9.10
2023-03-20T18:33:50.595Z,9.10
2023-03-20T18:36:21.931Z,9.00
2023-03-20T18:38:49.805Z,9.00
2023-03-20T18:41:17.172Z,9.00
2023-03-20T18:43:46.556Z,9.00
2023-03-20T18:46:21.134Z,8.90
2023-03-20T18:48:49.438Z,8.90
2023-03-20T18:51:16.368Z,9.00
2023-03-20T18:53:43.818Z,8.90
2023-03-20T18:56:18.452Z,9.00
2023-03-20T18:58:47.314Z,9.00
2023-03-20T19:01:15.754Z,9.00
2023-03-20T19:03:45.097Z,9.00
2023-03-20T19:06:17.674Z,9.00
2023-03-20T19:08:45.463Z,8.90
2023-03-20T19:11:17.340Z,9.00
2023-03-20T19:13:48.779Z,9.00
2023-03-20T19:16:31.741Z,9.00
2023-03-20T19:19:01.421Z,8.90
2023-03-20T19:21:29.525Z,8.90
2023-03-20T19:23:58.581Z,8.90
2023-03-20T19:26:27.421Z,8.80
2023-03-20T19:28:56.722Z,8.80
2023-03-20T19:31:24.645Z,8.90
2023-03-20T19:33:51.617Z,8.90
2023-03-20T19:36:32.022Z,8.90
2023-03-20T19:39:00.862Z,8.90
2023-03-20T19:41:28.809Z,9.00
2023-03-20T19:43:56.838Z,8.90
2023-03-20T19:46:39.289Z,9.00
2023-03-20T19:49:18.551Z,8.90
2023-03-20T19:51:46.559Z,8.90
2023-03-20T19:54:13.388Z,8.90
2023-03-20T19:56:40.613Z,8.90
2023-03-20T19:59:08.259Z,8.90
2023-03-20T20:01:36.378Z,9.00
2023-03-20T20:04:04.159Z,9.00
2023-03-20T20:06:32.977Z,9.00
2023-03-20T20:09:01.591Z,9.10
2023-03-20T20:11:28.841Z,9.10
2023-03-20T20:14:14.447Z,9.10
2023-03-20T20:16:43.273Z,9.10
2023-03-20T20:19:11.049Z,9.10
2023-03-20T20:24:25.315Z,9.10
2023-03-20T20:27:03.102Z,9.10
2023-03-20T20:29:39.758Z,9.00
2023-03-20T20:32:06.966Z,9.00
2023-03-20T20:38:09.064Z,9.00
2023-03-20T20:40:14.304Z,9.10
2023-03-20T20:42:43.221Z,9.10
2023-03-20T20:45:14.730Z,9.00
2023-03-20T20:47:43.938Z,9.00
2023-03-20T20:50:12.272Z,9.00
2023-03-20T20:52:41.711Z,9.00
2023-03-20T20:55:22.226Z,9.00
2023-03-20T20:57:51.380Z,9.00
2023-03-20T21:00:19.646Z,9.00
2023-03-20T21:02:46.683Z,9.00
2023-03-20T21:05:16.194Z,9.00
2023-03-20T21:07:45.088Z,9.00
2023-03-20T21:10:14.158Z,9.00
2023-03-20T21:12:57.831Z,8.90
2023-03-20T21:15:25.740Z,8.90
2023-03-20T21:18:00.412Z,8.80
2023-03-20T21:20:27.869Z,8.80
2023-03-20T21:22:54.835Z,8.70
2023-03-20T21:25:36.366Z,8.70
2023-03-20T21:28:06.811Z,8.70
2023-03-20T21:30:33.922Z,8.70
2023-03-20T21:33:01.027Z,8.70
2023-03-20T21:35:28.737Z,8.60
2023-03-20T21:40:43.183Z,8.50
2023-03-20T21:43:11.227Z,8.50
2023-03-20T21:46:23.476Z,8.50
2023-03-20T21:49:04.177Z,8.50
2023-03-20T21:57:24.039Z,8.40
2023-03-20T22:02:26.418Z,8.20
2023-03-20T22:08:21.699Z,8.00
2023-03-20T22:11:22.772Z,8.00
2023-03-20T22:14:22.261Z,8.00
2023-03-20T22:19:45.935Z,8.00
2023-03-20T22:22:26.268Z,8.00
2023-03-20T22:33:31.176Z,7.80
2023-03-20T22:41:59.261Z,7.70
2023-03-20T22:44:43.656Z,7.70
2023-03-20T22:46:47.015Z,7.70
2023-03-20T22:49:14.631Z,7.70
2023-03-20T22:51:57.556Z,7.70
2023-03-20T22:54:28.162Z,7.80
2023-03-20T22:56:55.521Z,7.80
2023-03-20T22:59:23.432Z,7.80
2023-03-20T23:01:50.231Z,7.80
2023-03-20T23:04:17.058Z,7.90
2023-03-20T23:06:43.888Z,7.90
2023-03-20T23:09:15.322Z,7.90
2023-03-20T23:11:42.980Z,7.90
2023-03-20T23:14:20.554Z,8.00
2023-03-20T23:16:48.268Z,8.00
2023-03-20T23:19:15.073Z,8.00
2023-03-20T23:21:41.803Z,8.00
2023-03-20T23:24:09.045Z,8.10
2023-03-20T23:26:35.871Z,8.10
2023-03-20T23:29:03.594Z,8.00
2023-03-20T23:31:30.419Z,8.00
2023-03-20T23:33:58.098Z,7.90
2023-03-20T23:36:35.955Z,7.90
2023-03-20T23:39:06.276Z,7.90
2023-03-20T23:42:01.787Z,7.80
2023-03-20T23:44:19.961Z,7.80
2023-03-20T23:46:48.287Z,7.80
2023-03-20T23:49:16.512Z,7.80
2023-03-20T23:51:43.458Z,7.90
2023-03-20T23:54:10.740Z,7.90
2023-03-20T23:56:37.490Z,7.90
2023-03-20T23:59:18.272Z,8.00
